sensor_id;sensor_type;location;lat;lon;timestamp;P1;durP1;ratioP1;P2;durP2;ratioP2
59970;SDS011;45825;45.434;9.116;2023-05-07T00:00:12;5.60;;;2.95;;
59970;SDS011;45825;45.434;9.116;2023-05-07T00:02:40;7.65;;;3.30;;
59970;SDS011;45825;45.434;9.116;2023-05-07T00:05:06;7.05;;;3.25;;
59970;SDS011;45825;45.434;9.116;2023-05-07T00:07:32;6.90;;;3.10;;
59970;SDS011;45825;45.434;9.116;2023-05-07T00:09:57;6.28;;;3.60;;
59970;SDS011;45825;45.434;9.116;2023-05-07T00:12:22;5.60;;;3.17;;
59970;SDS011;45825;45.434;9.116;2023-05-07T00:14:48;5.95;;;3.40;;
59970;SDS011;45825;45.434;9.116;2023-05-07T00:17:13;5.93;;;3.30;;
59970;SDS011;45825;45.434;9.116;2023-05-07T00:19:38;6.60;;;3.10;;
59970;SDS011;45825;45.434;9.116;2023-05-07T00:22:04;6.25;;;3.17;;
59970;SDS011;45825;45.434;9.116;2023-05-07T00:24:29;7.68;;;2.95;;
59970;SDS011;45825;45.434;9.116;2023-05-07T00:26:55;10.63;;;3.10;;
59970;SDS011;45825;45.434;9.116;2023-05-07T00:29:20;5.10;;;2.90;;
59970;SDS011;45825;45.434;9.116;2023-05-07T00:31:45;5.20;;;2.80;;
59970;SDS011;45825;45.434;9.116;2023-05-07T00:34:11;7.15;;;2.90;;
59970;SDS011;45825;45.434;9.116;2023-05-07T00:36:36;8.52;;;3.38;;
59970;SDS011;45825;45.434;9.116;2023-05-07T00:39:01;6.50;;;2.78;;
59970;SDS011;45825;45.434;9.116;2023-05-07T00:41:28;6.65;;;2.60;;
59970;SDS011;45825;45.434;9.116;2023-05-07T00:43:55;6.68;;;2.38;;
59970;SDS011;45825;45.434;9.116;2023-05-07T00:46:21;4.75;;;2.22;;
59970;SDS011;45825;45.434;9.116;2023-05-07T00:48:47;4.88;;;2.30;;
59970;SDS011;45825;45.434;9.116;2023-05-07T00:51:13;5.47;;;2.15;;
59970;SDS011;45825;45.434;9.116;2023-05-07T00:53:39;5.75;;;2.53;;
59970;SDS011;45825;45.434;9.116;2023-05-07T00:56:04;4.43;;;1.90;;
59970;SDS011;45825;45.434;9.116;2023-05-07T00:58:31;6.90;;;2.10;;
59970;SDS011;45825;45.434;9.116;2023-05-07T01:00:57;5.38;;;2.05;;
59970;SDS011;45825;45.434;9.116;2023-05-07T01:03:23;3.28;;;1.77;;
59970;SDS011;45825;45.434;9.116;2023-05-07T01:05:48;3.97;;;1.88;;
59970;SDS011;45825;45.434;9.116;2023-05-07T01:08:15;5.15;;;1.90;;
59970;SDS011;45825;45.434;9.116;2023-05-07T01:10:41;4.70;;;1.85;;
59970;SDS011;45825;45.434;9.116;2023-05-07T01:13:11;3.75;;;1.75;;
59970;SDS011;45825;45.434;9.116;2023-05-07T01:15:38;4.07;;;2.28;;
59970;SDS011;45825;45.434;9.116;2023-05-07T01:18:05;2.95;;;1.90;;
59970;SDS011;45825;45.434;9.116;2023-05-07T01:20:31;4.45;;;1.73;;
59970;SDS011;45825;45.434;9.116;2023-05-07T01:22:57;3.45;;;1.83;;
59970;SDS011;45825;45.434;9.116;2023-05-07T01:25:23;5.32;;;2.20;;
59970;SDS011;45825;45.434;9.116;2023-05-07T01:27:48;5.78;;;2.40;;
59970;SDS011;45825;45.434;9.116;2023-05-07T01:30:14;6.80;;;2.20;;
59970;SDS011;45825;45.434;9.116;2023-05-07T01:32:46;4.85;;;2.50;;
59970;SDS011;45825;45.434;9.116;2023-05-07T01:35:16;7.47;;;2.95;;
59970;SDS011;45825;45.434;9.116;2023-05-07T01:37:45;8.43;;;3.47;;
59970;SDS011;45825;45.434;9.116;2023-05-07T01:40:12;8.05;;;3.78;;
59970;SDS011;45825;45.434;9.116;2023-05-07T01:42:38;8.98;;;4.07;;
59970;SDS011;45825;45.434;9.116;2023-05-07T01:45:04;7.05;;;4.68;;
59970;SDS011;45825;45.434;9.116;2023-05-07T01:47:30;9.63;;;4.70;;
59970;SDS011;45825;45.434;9.116;2023-05-07T01:49:56;9.18;;;4.45;;
59970;SDS011;45825;45.434;9.116;2023-05-07T01:52:22;8.75;;;4.35;;
59970;SDS011;45825;45.434;9.116;2023-05-07T01:54:47;5.35;;;3.38;;
59970;SDS011;45825;45.434;9.116;2023-05-07T01:57:12;5.13;;;3.13;;
59970;SDS011;45825;45.434;9.116;2023-05-07T01:59:38;5.68;;;3.00;;
59970;SDS011;45825;45.434;9.116;2023-05-07T02:02:03;5.82;;;2.83;;
59970;SDS011;45825;45.434;9.116;2023-05-07T02:04:28;5.28;;;2.60;;
59970;SDS011;45825;45.434;9.116;2023-05-07T02:06:54;4.03;;;2.28;;
59970;SDS011;45825;45.434;9.116;2023-05-07T02:09:19;5.07;;;2.10;;
59970;SDS011;45825;45.434;9.116;2023-05-07T02:11:44;2.90;;;2.08;;
59970;SDS011;45825;45.434;9.116;2023-05-07T02:14:10;3.35;;;2.00;;
59970;SDS011;45825;45.434;9.116;2023-05-07T02:16:35;5.43;;;1.88;;
59970;SDS011;45825;45.434;9.116;2023-05-07T02:19:00;5.05;;;1.40;;
59970;SDS011;45825;45.434;9.116;2023-05-07T02:21:26;3.53;;;1.70;;
59970;SDS011;45825;45.434;9.116;2023-05-07T02:23:51;4.63;;;1.48;;
59970;SDS011;45825;45.434;9.116;2023-05-07T02:26:16;5.30;;;1.40;;
59970;SDS011;45825;45.434;9.116;2023-05-07T02:28:42;4.60;;;1.42;;
59970;SDS011;45825;45.434;9.116;2023-05-07T02:31:07;3.50;;;1.50;;
59970;SDS011;45825;45.434;9.116;2023-05-07T02:33:33;3.95;;;1.52;;
59970;SDS011;45825;45.434;9.116;2023-05-07T02:36:09;3.47;;;1.60;;
59970;SDS011;45825;45.434;9.116;2023-05-07T02:38:35;3.80;;;1.48;;
59970;SDS011;45825;45.434;9.116;2023-05-07T02:41:00;5.10;;;1.50;;
59970;SDS011;45825;45.434;9.116;2023-05-07T02:43:26;2.45;;;1.17;;
59970;SDS011;45825;45.434;9.116;2023-05-07T02:46:01;3.72;;;1.40;;
59970;SDS011;45825;45.434;9.116;2023-05-07T02:48:33;5.97;;;1.40;;
59970;SDS011;45825;45.434;9.116;2023-05-07T02:50:58;3.35;;;1.40;;
59970;SDS011;45825;45.434;9.116;2023-05-07T02:53:24;2.20;;;1.27;;
59970;SDS011;45825;45.434;9.116;2023-05-07T02:55:54;2.60;;;1.20;;
59970;SDS011;45825;45.434;9.116;2023-05-07T02:58:21;2.67;;;1.25;;
59970;SDS011;45825;45.434;9.116;2023-05-07T03:00:46;2.38;;;1.30;;
59970;SDS011;45825;45.434;9.116;2023-05-07T03:03:12;4.00;;;1.30;;
59970;SDS011;45825;45.434;9.116;2023-05-07T03:05:38;4.05;;;1.27;;
59970;SDS011;45825;45.434;9.116;2023-05-07T03:08:03;2.42;;;1.42;;
59970;SDS011;45825;45.434;9.116;2023-05-07T03:10:29;2.25;;;1.30;;
59970;SDS011;45825;45.434;9.116;2023-05-07T03:12:54;3.10;;;1.50;;
59970;SDS011;45825;45.434;9.116;2023-05-07T03:15:20;3.05;;;1.48;;
59970;SDS011;45825;45.434;9.116;2023-05-07T03:17:46;3.75;;;1.50;;
59970;SDS011;45825;45.434;9.116;2023-05-07T03:20:12;3.90;;;1.52;;
59970;SDS011;45825;45.434;9.116;2023-05-07T03:22:38;2.45;;;1.38;;
59970;SDS011;45825;45.434;9.116;2023-05-07T03:25:03;3.05;;;1.60;;
59970;SDS011;45825;45.434;9.116;2023-05-07T03:27:29;5.13;;;1.50;;
59970;SDS011;45825;45.434;9.116;2023-05-07T03:29:54;3.85;;;1.48;;
59970;SDS011;45825;45.434;9.116;2023-05-07T03:32:20;3.40;;;1.70;;
59970;SDS011;45825;45.434;9.116;2023-05-07T03:34:45;2.28;;;1.42;;
59970;SDS011;45825;45.434;9.116;2023-05-07T03:37:10;2.58;;;1.48;;
59970;SDS011;45825;45.434;9.116;2023-05-07T03:39:36;2.72;;;1.40;;
59970;SDS011;45825;45.434;9.116;2023-05-07T03:42:01;5.50;;;1.75;;
59970;SDS011;45825;45.434;9.116;2023-05-07T03:44:27;2.15;;;1.58;;
59970;SDS011;45825;45.434;9.116;2023-05-07T03:46:52;2.95;;;1.60;;
59970;SDS011;45825;45.434;9.116;2023-05-07T03:49:18;2.63;;;1.50;;
59970;SDS011;45825;45.434;9.116;2023-05-07T03:51:43;2.45;;;1.30;;
59970;SDS011;45825;45.434;9.116;2023-05-07T03:54:08;3.75;;;1.67;;
59970;SDS011;45825;45.434;9.116;2023-05-07T03:56:34;2.92;;;1.58;;
59970;SDS011;45825;45.434;9.116;2023-05-07T03:59:00;2.10;;;1.30;;
59970;SDS011;45825;45.434;9.116;2023-05-07T04:01:25;2.70;;;1.60;;
59970;SDS011;45825;45.434;9.116;2023-05-07T04:03:51;1.58;;;1.23;;
59970;SDS011;45825;45.434;9.116;2023-05-07T04:06:16;2.90;;;1.70;;
59970;SDS011;45825;45.434;9.116;2023-05-07T04:08:44;2.45;;;1.40;;
59970;SDS011;45825;45.434;9.116;2023-05-07T04:11:09;2.60;;;1.30;;
59970;SDS011;45825;45.434;9.116;2023-05-07T04:13:35;3.33;;;1.40;;
59970;SDS011;45825;45.434;9.116;2023-05-07T04:16:03;4.45;;;1.33;;
59970;SDS011;45825;45.434;9.116;2023-05-07T04:18:30;2.45;;;1.30;;
59970;SDS011;45825;45.434;9.116;2023-05-07T04:20:55;2.67;;;1.20;;
59970;SDS011;45825;45.434;9.116;2023-05-07T04:23:20;1.60;;;1.15;;
59970;SDS011;45825;45.434;9.116;2023-05-07T04:25:46;3.30;;;1.40;;
59970;SDS011;45825;45.434;9.116;2023-05-07T04:28:11;2.35;;;1.15;;
59970;SDS011;45825;45.434;9.116;2023-05-07T04:30:37;2.63;;;1.33;;
59970;SDS011;45825;45.434;9.116;2023-05-07T04:33:02;3.25;;;1.48;;
59970;SDS011;45825;45.434;9.116;2023-05-07T04:35:28;2.53;;;1.20;;
59970;SDS011;45825;45.434;9.116;2023-05-07T04:37:53;2.72;;;1.33;;
59970;SDS011;45825;45.434;9.116;2023-05-07T04:40:18;2.33;;;1.20;;
59970;SDS011;45825;45.434;9.116;2023-05-07T04:42:44;2.20;;;1.10;;
59970;SDS011;45825;45.434;9.116;2023-05-07T04:45:09;2.00;;;1.10;;
59970;SDS011;45825;45.434;9.116;2023-05-07T04:47:35;2.58;;;1.20;;
59970;SDS011;45825;45.434;9.116;2023-05-07T04:50:01;3.25;;;1.13;;
59970;SDS011;45825;45.434;9.116;2023-05-07T04:52:26;2.75;;;1.17;;
59970;SDS011;45825;45.434;9.116;2023-05-07T04:54:51;2.97;;;1.20;;
59970;SDS011;45825;45.434;9.116;2023-05-07T04:57:17;1.85;;;1.17;;
59970;SDS011;45825;45.434;9.116;2023-05-07T04:59:42;2.25;;;1.10;;
59970;SDS011;45825;45.434;9.116;2023-05-07T05:02:10;2.85;;;1.15;;
59970;SDS011;45825;45.434;9.116;2023-05-07T05:04:35;2.33;;;1.02;;
59970;SDS011;45825;45.434;9.116;2023-05-07T05:07:01;4.00;;;1.30;;
59970;SDS011;45825;45.434;9.116;2023-05-07T05:09:28;2.30;;;1.13;;
59970;SDS011;45825;45.434;9.116;2023-05-07T05:11:53;1.80;;;1.27;;
59970;SDS011;45825;45.434;9.116;2023-05-07T05:14:19;3.42;;;1.20;;
59970;SDS011;45825;45.434;9.116;2023-05-07T05:16:44;2.33;;;1.10;;
59970;SDS011;45825;45.434;9.116;2023-05-07T05:19:09;2.30;;;1.10;;
59970;SDS011;45825;45.434;9.116;2023-05-07T05:21:35;2.63;;;1.20;;
59970;SDS011;45825;45.434;9.116;2023-05-07T05:24:00;1.65;;;0.90;;
59970;SDS011;45825;45.434;9.116;2023-05-07T05:26:26;2.25;;;1.20;;
59970;SDS011;45825;45.434;9.116;2023-05-07T05:28:51;2.72;;;1.17;;
59970;SDS011;45825;45.434;9.116;2023-05-07T05:31:16;1.75;;;1.10;;
59970;SDS011;45825;45.434;9.116;2023-05-07T05:33:41;2.35;;;1.17;;
59970;SDS011;45825;45.434;9.116;2023-05-07T05:36:09;4.85;;;1.15;;
59970;SDS011;45825;45.434;9.116;2023-05-07T05:38:35;2.65;;;1.20;;
59970;SDS011;45825;45.434;9.116;2023-05-07T05:41:00;1.92;;;1.08;;
59970;SDS011;45825;45.434;9.116;2023-05-07T05:43:25;2.20;;;1.10;;
59970;SDS011;45825;45.434;9.116;2023-05-07T05:45:50;3.40;;;1.25;;
59970;SDS011;45825;45.434;9.116;2023-05-07T05:48:16;3.97;;;1.20;;
59970;SDS011;45825;45.434;9.116;2023-05-07T05:50:41;2.63;;;1.45;;
59970;SDS011;45825;45.434;9.116;2023-05-07T05:53:07;3.15;;;1.35;;
59970;SDS011;45825;45.434;9.116;2023-05-07T05:55:32;4.53;;;1.40;;
59970;SDS011;45825;45.434;9.116;2023-05-07T05:57:59;2.55;;;1.40;;
59970;SDS011;45825;45.434;9.116;2023-05-07T06:00:25;3.20;;;1.63;;
59970;SDS011;45825;45.434;9.116;2023-05-07T06:02:50;3.40;;;1.63;;
59970;SDS011;45825;45.434;9.116;2023-05-07T06:05:15;3.65;;;1.80;;
59970;SDS011;45825;45.434;9.116;2023-05-07T06:07:41;4.03;;;1.65;;
59970;SDS011;45825;45.434;9.116;2023-05-07T06:10:06;4.47;;;1.77;;
59970;SDS011;45825;45.434;9.116;2023-05-07T06:12:32;4.18;;;1.90;;
59970;SDS011;45825;45.434;9.116;2023-05-07T06:14:57;3.40;;;1.90;;
59970;SDS011;45825;45.434;9.116;2023-05-07T06:17:23;5.50;;;1.90;;
59970;SDS011;45825;45.434;9.116;2023-05-07T06:19:48;4.15;;;2.10;;
59970;SDS011;45825;45.434;9.116;2023-05-07T06:22:13;2.90;;;1.77;;
59970;SDS011;45825;45.434;9.116;2023-05-07T06:24:38;3.75;;;1.80;;
59970;SDS011;45825;45.434;9.116;2023-05-07T06:27:04;4.13;;;1.92;;
59970;SDS011;45825;45.434;9.116;2023-05-07T06:29:29;5.20;;;2.03;;
59970;SDS011;45825;45.434;9.116;2023-05-07T06:31:57;3.90;;;2.10;;
59970;SDS011;45825;45.434;9.116;2023-05-07T06:34:31;4.20;;;1.85;;
59970;SDS011;45825;45.434;9.116;2023-05-07T06:36:57;3.38;;;2.05;;
59970;SDS011;45825;45.434;9.116;2023-05-07T06:39:23;3.92;;;1.88;;
59970;SDS011;45825;45.434;9.116;2023-05-07T06:41:48;3.78;;;2.00;;
59970;SDS011;45825;45.434;9.116;2023-05-07T06:44:13;3.92;;;1.88;;
59970;SDS011;45825;45.434;9.116;2023-05-07T06:46:38;2.75;;;1.70;;
59970;SDS011;45825;45.434;9.116;2023-05-07T06:49:04;4.72;;;2.00;;
59970;SDS011;45825;45.434;9.116;2023-05-07T06:51:29;3.10;;;1.90;;
59970;SDS011;45825;45.434;9.116;2023-05-07T06:53:55;5.50;;;2.15;;
59970;SDS011;45825;45.434;9.116;2023-05-07T06:56:20;4.20;;;2.35;;
59970;SDS011;45825;45.434;9.116;2023-05-07T06:58:46;5.45;;;2.20;;
59970;SDS011;45825;45.434;9.116;2023-05-07T07:01:11;5.28;;;2.20;;
59970;SDS011;45825;45.434;9.116;2023-05-07T07:03:36;4.25;;;2.15;;
59970;SDS011;45825;45.434;9.116;2023-05-07T07:06:01;3.85;;;2.00;;
59970;SDS011;45825;45.434;9.116;2023-05-07T07:08:27;4.53;;;2.20;;
59970;SDS011;45825;45.434;9.116;2023-05-07T07:10:52;5.85;;;2.70;;
59970;SDS011;45825;45.434;9.116;2023-05-07T07:13:18;4.75;;;2.15;;
59970;SDS011;45825;45.434;9.116;2023-05-07T07:15:44;4.50;;;2.10;;
59970;SDS011;45825;45.434;9.116;2023-05-07T07:18:10;3.63;;;1.98;;
59970;SDS011;45825;45.434;9.116;2023-05-07T07:20:35;4.60;;;2.30;;
59970;SDS011;45825;45.434;9.116;2023-05-07T07:23:00;4.20;;;2.30;;
59970;SDS011;45825;45.434;9.116;2023-05-07T07:25:26;4.75;;;2.45;;
59970;SDS011;45825;45.434;9.116;2023-05-07T07:27:51;4.50;;;2.28;;
59970;SDS011;45825;45.434;9.116;2023-05-07T07:30:16;3.30;;;2.00;;
59970;SDS011;45825;45.434;9.116;2023-05-07T07:32:42;3.80;;;2.25;;
59970;SDS011;45825;45.434;9.116;2023-05-07T07:35:07;5.93;;;2.30;;
59970;SDS011;45825;45.434;9.116;2023-05-07T07:37:33;6.18;;;2.38;;
59970;SDS011;45825;45.434;9.116;2023-05-07T07:39:59;5.75;;;2.78;;
59970;SDS011;45825;45.434;9.116;2023-05-07T07:42:24;6.45;;;2.50;;
59970;SDS011;45825;45.434;9.116;2023-05-07T07:44:50;5.20;;;2.47;;
59970;SDS011;45825;45.434;9.116;2023-05-07T07:47:15;4.55;;;2.50;;
59970;SDS011;45825;45.434;9.116;2023-05-07T07:49:40;3.88;;;2.13;;
59970;SDS011;45825;45.434;9.116;2023-05-07T07:52:06;5.63;;;2.30;;
59970;SDS011;45825;45.434;9.116;2023-05-07T07:54:31;4.55;;;1.90;;
59970;SDS011;45825;45.434;9.116;2023-05-07T07:56:57;3.72;;;1.60;;
59970;SDS011;45825;45.434;9.116;2023-05-07T07:59:22;3.97;;;1.88;;
59970;SDS011;45825;45.434;9.116;2023-05-07T08:01:48;3.60;;;1.90;;
59970;SDS011;45825;45.434;9.116;2023-05-07T08:04:15;6.95;;;2.08;;
59970;SDS011;45825;45.434;9.116;2023-05-07T08:06:40;3.95;;;1.80;;
59970;SDS011;45825;45.434;9.116;2023-05-07T08:09:06;4.35;;;1.83;;
59970;SDS011;45825;45.434;9.116;2023-05-07T08:11:31;3.63;;;1.70;;
59970;SDS011;45825;45.434;9.116;2023-05-07T08:13:56;10.18;;;1.95;;
59970;SDS011;45825;45.434;9.116;2023-05-07T08:16:21;3.33;;;1.60;;
59970;SDS011;45825;45.434;9.116;2023-05-07T08:18:47;5.55;;;1.83;;
59970;SDS011;45825;45.434;9.116;2023-05-07T08:21:12;4.90;;;2.10;;
59970;SDS011;45825;45.434;9.116;2023-05-07T08:23:37;4.03;;;2.15;;
59970;SDS011;45825;45.434;9.116;2023-05-07T08:26:03;3.78;;;2.13;;
59970;SDS011;45825;45.434;9.116;2023-05-07T08:28:28;6.43;;;2.30;;
59970;SDS011;45825;45.434;9.116;2023-05-07T08:30:53;3.83;;;2.10;;
59970;SDS011;45825;45.434;9.116;2023-05-07T08:33:19;3.78;;;1.90;;
59970;SDS011;45825;45.434;9.116;2023-05-07T08:35:44;4.28;;;2.00;;
59970;SDS011;45825;45.434;9.116;2023-05-07T08:38:09;4.78;;;2.28;;
59970;SDS011;45825;45.434;9.116;2023-05-07T08:40:36;4.32;;;2.40;;
59970;SDS011;45825;45.434;9.116;2023-05-07T08:43:05;5.45;;;2.78;;
59970;SDS011;45825;45.434;9.116;2023-05-07T08:45:31;5.30;;;3.10;;
59970;SDS011;45825;45.434;9.116;2023-05-07T08:47:58;6.75;;;3.00;;
59970;SDS011;45825;45.434;9.116;2023-05-07T08:50:26;6.40;;;3.88;;
59970;SDS011;45825;45.434;9.116;2023-05-07T08:52:52;5.88;;;3.35;;
59970;SDS011;45825;45.434;9.116;2023-05-07T08:55:17;7.45;;;3.33;;
59970;SDS011;45825;45.434;9.116;2023-05-07T08:57:43;8.30;;;3.80;;
59970;SDS011;45825;45.434;9.116;2023-05-07T09:00:09;6.60;;;3.78;;
59970;SDS011;45825;45.434;9.116;2023-05-07T09:02:35;6.28;;;3.53;;
59970;SDS011;45825;45.434;9.116;2023-05-07T09:05:01;7.38;;;3.97;;
59970;SDS011;45825;45.434;9.116;2023-05-07T09:07:27;8.13;;;4.78;;
59970;SDS011;45825;45.434;9.116;2023-05-07T09:09:53;7.93;;;5.05;;
59970;SDS011;45825;45.434;9.116;2023-05-07T09:12:20;11.18;;;6.75;;
59970;SDS011;45825;45.434;9.116;2023-05-07T09:14:46;13.40;;;6.60;;
59970;SDS011;45825;45.434;9.116;2023-05-07T09:17:12;8.48;;;5.55;;
59970;SDS011;45825;45.434;9.116;2023-05-07T09:19:37;9.50;;;4.78;;
59970;SDS011;45825;45.434;9.116;2023-05-07T09:22:03;8.40;;;3.05;;
59970;SDS011;45825;45.434;9.116;2023-05-07T09:24:31;6.25;;;2.75;;
59970;SDS011;45825;45.434;9.116;2023-05-07T09:27:00;4.70;;;2.70;;
59970;SDS011;45825;45.434;9.116;2023-05-07T09:29:30;6.13;;;2.95;;
59970;SDS011;45825;45.434;9.116;2023-05-07T09:32:00;5.88;;;3.53;;
59970;SDS011;45825;45.434;9.116;2023-05-07T09:34:26;5.18;;;2.78;;
59970;SDS011;45825;45.434;9.116;2023-05-07T09:36:51;5.05;;;3.05;;
59970;SDS011;45825;45.434;9.116;2023-05-07T09:39:17;6.90;;;3.17;;
59970;SDS011;45825;45.434;9.116;2023-05-07T09:41:48;7.60;;;3.30;;
59970;SDS011;45825;45.434;9.116;2023-05-07T09:44:14;5.22;;;2.90;;
59970;SDS011;45825;45.434;9.116;2023-05-07T09:46:42;4.75;;;3.20;;
59970;SDS011;45825;45.434;9.116;2023-05-07T09:49:11;6.22;;;3.47;;
59970;SDS011;45825;45.434;9.116;2023-05-07T09:51:43;5.27;;;3.40;;
59970;SDS011;45825;45.434;9.116;2023-05-07T09:54:12;6.32;;;3.33;;
59970;SDS011;45825;45.434;9.116;2023-05-07T09:56:38;5.40;;;3.58;;
59970;SDS011;45825;45.434;9.116;2023-05-07T09:59:06;5.28;;;3.50;;
59970;SDS011;45825;45.434;9.116;2023-05-07T10:01:32;6.45;;;3.25;;
59970;SDS011;45825;45.434;9.116;2023-05-07T10:04:01;9.43;;;3.03;;
59970;SDS011;45825;45.434;9.116;2023-05-07T10:06:28;5.88;;;3.05;;
59970;SDS011;45825;45.434;9.116;2023-05-07T10:08:55;4.70;;;2.70;;
59970;SDS011;45825;45.434;9.116;2023-05-07T10:11:21;6.80;;;2.60;;
59970;SDS011;45825;45.434;9.116;2023-05-07T10:13:47;8.50;;;2.75;;
59970;SDS011;45825;45.434;9.116;2023-05-07T10:16:13;4.68;;;2.50;;
59970;SDS011;45825;45.434;9.116;2023-05-07T10:18:42;3.58;;;2.25;;
59970;SDS011;45825;45.434;9.116;2023-05-07T10:21:11;3.38;;;2.10;;
59970;SDS011;45825;45.434;9.116;2023-05-07T10:23:40;4.07;;;2.40;;
59970;SDS011;45825;45.434;9.116;2023-05-07T10:26:09;3.90;;;2.00;;
59970;SDS011;45825;45.434;9.116;2023-05-07T10:28:37;4.95;;;3.13;;
59970;SDS011;45825;45.434;9.116;2023-05-07T10:31:08;4.85;;;2.72;;
59970;SDS011;45825;45.434;9.116;2023-05-07T10:33:43;4.57;;;2.75;;
59970;SDS011;45825;45.434;9.116;2023-05-07T10:36:11;4.70;;;2.60;;
59970;SDS011;45825;45.434;9.116;2023-05-07T10:38:37;5.35;;;2.90;;
59970;SDS011;45825;45.434;9.116;2023-05-07T10:41:04;6.13;;;2.92;;
59970;SDS011;45825;45.434;9.116;2023-05-07T10:43:43;4.53;;;2.60;;
59970;SDS011;45825;45.434;9.116;2023-05-07T10:49:24;6.45;;;2.80;;
59970;SDS011;45825;45.434;9.116;2023-05-07T10:54:17;5.00;;;2.55;;
59970;SDS011;45825;45.434;9.116;2023-05-07T10:56:43;6.90;;;2.70;;
59970;SDS011;45825;45.434;9.116;2023-05-07T11:02:01;4.50;;;2.90;;
59970;SDS011;45825;45.434;9.116;2023-05-07T11:04:32;4.70;;;2.53;;
59970;SDS011;45825;45.434;9.116;2023-05-07T11:15:03;4.18;;;2.15;;
59970;SDS011;45825;45.434;9.116;2023-05-07T11:17:29;6.30;;;2.60;;
59970;SDS011;45825;45.434;9.116;2023-05-07T11:19:57;3.08;;;2.10;;
59970;SDS011;45825;45.434;9.116;2023-05-07T11:25:01;2.40;;;1.90;;
59970;SDS011;45825;45.434;9.116;2023-05-07T11:27:31;3.35;;;1.90;;
59970;SDS011;45825;45.434;9.116;2023-05-07T11:29:57;3.58;;;2.20;;
59970;SDS011;45825;45.434;9.116;2023-05-07T11:32:27;3.75;;;2.08;;
59970;SDS011;45825;45.434;9.116;2023-05-07T11:34:53;3.53;;;2.40;;
59970;SDS011;45825;45.434;9.116;2023-05-07T11:37:20;3.97;;;2.25;;
59970;SDS011;45825;45.434;9.116;2023-05-07T11:39:46;2.80;;;2.05;;
59970;SDS011;45825;45.434;9.116;2023-05-07T11:42:27;4.63;;;2.30;;
59970;SDS011;45825;45.434;9.116;2023-05-07T11:44:54;4.03;;;2.63;;
59970;SDS011;45825;45.434;9.116;2023-05-07T11:47:20;3.20;;;2.17;;
59970;SDS011;45825;45.434;9.116;2023-05-07T11:49:49;4.28;;;2.42;;
59970;SDS011;45825;45.434;9.116;2023-05-07T11:52:19;5.00;;;2.45;;
59970;SDS011;45825;45.434;9.116;2023-05-07T11:54:55;4.45;;;2.20;;
59970;SDS011;45825;45.434;9.116;2023-05-07T11:57:22;5.13;;;2.97;;
59970;SDS011;45825;45.434;9.116;2023-05-07T11:59:55;5.18;;;2.67;;
59970;SDS011;45825;45.434;9.116;2023-05-07T12:02:25;4.25;;;2.65;;
59970;SDS011;45825;45.434;9.116;2023-05-07T12:04:51;4.75;;;2.70;;
59970;SDS011;45825;45.434;9.116;2023-05-07T12:07:17;3.97;;;2.50;;
59970;SDS011;45825;45.434;9.116;2023-05-07T12:09:43;3.97;;;2.55;;
59970;SDS011;45825;45.434;9.116;2023-05-07T12:12:10;4.63;;;2.53;;
59970;SDS011;45825;45.434;9.116;2023-05-07T12:14:39;3.90;;;2.40;;
59970;SDS011;45825;45.434;9.116;2023-05-07T12:17:07;5.97;;;2.28;;
59970;SDS011;45825;45.434;9.116;2023-05-07T12:19:33;3.50;;;2.20;;
59970;SDS011;45825;45.434;9.116;2023-05-07T12:21:59;3.72;;;2.30;;
59970;SDS011;45825;45.434;9.116;2023-05-07T12:24:25;4.30;;;2.30;;
59970;SDS011;45825;45.434;9.116;2023-05-07T12:26:51;4.05;;;2.20;;
59970;SDS011;45825;45.434;9.116;2023-05-07T12:29:16;5.60;;;1.88;;
59970;SDS011;45825;45.434;9.116;2023-05-07T12:31:42;4.60;;;1.98;;
59970;SDS011;45825;45.434;9.116;2023-05-07T12:34:10;3.53;;;2.25;;
59970;SDS011;45825;45.434;9.116;2023-05-07T12:36:37;3.65;;;2.10;;
59970;SDS011;45825;45.434;9.116;2023-05-07T12:39:06;4.05;;;2.20;;
59970;SDS011;45825;45.434;9.116;2023-05-07T12:41:55;4.20;;;1.88;;
59970;SDS011;45825;45.434;9.116;2023-05-07T12:44:26;3.53;;;2.10;;
59970;SDS011;45825;45.434;9.116;2023-05-07T12:46:55;2.92;;;2.05;;
59970;SDS011;45825;45.434;9.116;2023-05-07T12:49:20;2.90;;;2.00;;
59970;SDS011;45825;45.434;9.116;2023-05-07T12:51:49;3.58;;;1.70;;
59970;SDS011;45825;45.434;9.116;2023-05-07T12:57:02;3.15;;;1.63;;
59970;SDS011;45825;45.434;9.116;2023-05-07T12:59:41;2.95;;;1.67;;
59970;SDS011;45825;45.434;9.116;2023-05-07T13:02:07;4.22;;;1.70;;
59970;SDS011;45825;45.434;9.116;2023-05-07T13:04:33;3.67;;;1.80;;
59970;SDS011;45825;45.434;9.116;2023-05-07T13:06:59;4.18;;;1.80;;
59970;SDS011;45825;45.434;9.116;2023-05-07T13:09:25;3.38;;;1.90;;
59970;SDS011;45825;45.434;9.116;2023-05-07T13:11:50;3.92;;;1.70;;
59970;SDS011;45825;45.434;9.116;2023-05-07T13:14:15;2.53;;;1.25;;
59970;SDS011;45825;45.434;9.116;2023-05-07T13:16:41;1.80;;;1.20;;
59970;SDS011;45825;45.434;9.116;2023-05-07T13:19:07;2.38;;;1.30;;
59970;SDS011;45825;45.434;9.116;2023-05-07T13:21:32;3.03;;;1.40;;
59970;SDS011;45825;45.434;9.116;2023-05-07T13:23:57;2.90;;;1.52;;
59970;SDS011;45825;45.434;9.116;2023-05-07T13:26:23;1.85;;;1.13;;
59970;SDS011;45825;45.434;9.116;2023-05-07T13:28:49;2.60;;;1.00;;
59970;SDS011;45825;45.434;9.116;2023-05-07T13:31:14;2.45;;;1.05;;
59970;SDS011;45825;45.434;9.116;2023-05-07T13:33:40;1.80;;;1.30;;
59970;SDS011;45825;45.434;9.116;2023-05-07T13:36:06;3.67;;;1.42;;
59970;SDS011;45825;45.434;9.116;2023-05-07T13:38:31;2.95;;;1.38;;
59970;SDS011;45825;45.434;9.116;2023-05-07T13:40:57;1.70;;;1.20;;
59970;SDS011;45825;45.434;9.116;2023-05-07T13:43:22;1.83;;;1.25;;
59970;SDS011;45825;45.434;9.116;2023-05-07T13:45:47;1.65;;;1.10;;
59970;SDS011;45825;45.434;9.116;2023-05-07T13:48:13;3.60;;;1.20;;
59970;SDS011;45825;45.434;9.116;2023-05-07T13:50:38;3.25;;;1.42;;
59970;SDS011;45825;45.434;9.116;2023-05-07T13:53:03;2.80;;;1.40;;
59970;SDS011;45825;45.434;9.116;2023-05-07T13:55:29;2.70;;;1.50;;
59970;SDS011;45825;45.434;9.116;2023-05-07T13:57:55;1.98;;;1.48;;
59970;SDS011;45825;45.434;9.116;2023-05-07T14:00:22;2.55;;;1.45;;
59970;SDS011;45825;45.434;9.116;2023-05-07T14:02:48;2.78;;;1.50;;
59970;SDS011;45825;45.434;9.116;2023-05-07T14:05:13;3.65;;;1.60;;
59970;SDS011;45825;45.434;9.116;2023-05-07T14:07:38;5.13;;;1.60;;
59970;SDS011;45825;45.434;9.116;2023-05-07T14:10:04;7.45;;;1.50;;
59970;SDS011;45825;45.434;9.116;2023-05-07T14:12:30;2.95;;;1.35;;
59970;SDS011;45825;45.434;9.116;2023-05-07T14:14:56;2.40;;;1.30;;
59970;SDS011;45825;45.434;9.116;2023-05-07T14:17:21;3.08;;;1.50;;
59970;SDS011;45825;45.434;9.116;2023-05-07T14:19:48;2.45;;;1.60;;
59970;SDS011;45825;45.434;9.116;2023-05-07T14:22:13;2.05;;;1.38;;
59970;SDS011;45825;45.434;9.116;2023-05-07T14:24:40;4.70;;;1.48;;
59970;SDS011;45825;45.434;9.116;2023-05-07T14:27:05;2.38;;;1.40;;
59970;SDS011;45825;45.434;9.116;2023-05-07T14:29:31;1.92;;;1.38;;
59970;SDS011;45825;45.434;9.116;2023-05-07T14:31:56;2.65;;;1.50;;
59970;SDS011;45825;45.434;9.116;2023-05-07T14:34:21;2.92;;;1.55;;
59970;SDS011;45825;45.434;9.116;2023-05-07T14:36:47;3.08;;;1.45;;
59970;SDS011;45825;45.434;9.116;2023-05-07T14:39:12;2.92;;;1.55;;
59970;SDS011;45825;45.434;9.116;2023-05-07T14:41:37;3.10;;;1.40;;
59970;SDS011;45825;45.434;9.116;2023-05-07T14:44:03;2.83;;;1.50;;
59970;SDS011;45825;45.434;9.116;2023-05-07T14:46:29;2.28;;;1.40;;
59970;SDS011;45825;45.434;9.116;2023-05-07T14:48:54;4.20;;;1.35;;
59970;SDS011;45825;45.434;9.116;2023-05-07T14:51:21;4.10;;;1.40;;
59970;SDS011;45825;45.434;9.116;2023-05-07T14:53:46;3.25;;;1.40;;
59970;SDS011;45825;45.434;9.116;2023-05-07T14:56:11;4.13;;;1.40;;
59970;SDS011;45825;45.434;9.116;2023-05-07T14:58:37;3.75;;;1.50;;
59970;SDS011;45825;45.434;9.116;2023-05-07T15:01:03;2.60;;;1.50;;
59970;SDS011;45825;45.434;9.116;2023-05-07T15:03:28;2.80;;;1.45;;